createdAt,value
2024-02-05T00:00:03.828Z,98417.00
2024-02-05T00:05:35.033Z,98415.23
2024-02-05T00:10:38.124Z,98410.25
2024-02-05T00:15:41.343Z,98404.45
2024-02-05T00:20:44.645Z,98403.50
2024-02-05T00:25:48.244Z,98404.71
2024-02-05T00:30:51.891Z,98406.55
2024-02-05T00:35:54.939Z,98400.73
2024-02-05T00:40:58.128Z,98402.20
2024-02-05T00:46:01.570Z,98402.99
2024-02-05T00:51:05.291Z,98393.70
2024-02-05T00:56:08.445Z,98390.10
2024-02-05T01:01:12.667Z,98372.39
2024-02-05T01:06:16.229Z,98378.84
2024-02-05T01:11:19.551Z,98379.28
2024-02-05T01:16:22.776Z,98377.66
2024-02-05T01:21:25.951Z,98366.44
2024-02-05T01:26:28.992Z,98366.62
2024-02-05T01:31:31.982Z,98364.91
2024-02-05T01:36:35.514Z,98351.31
2024-02-05T01:41:38.731Z,98341.23
2024-02-05T01:46:41.853Z,98333.41
2024-02-05T01:51:48.509Z,98323.98
2024-02-05T01:56:54.758Z,98317.18
2024-02-05T02:01:58.039Z,98307.34
2024-02-05T02:07:05.169Z,98300.70
2024-02-05T02:12:08.887Z,98292.00
2024-02-05T02:17:11.916Z,98288.09
2024-02-05T02:22:42.787Z,98284.59
2024-02-05T02:27:46.707Z,98277.75
2024-02-05T02:33:24.713Z,98276.05
2024-02-05T02:38:33.823Z,98270.05
2024-02-05T02:43:48.058Z,98264.89
2024-02-05T02:48:51.485Z,98259.70
2024-02-05T02:53:55.011Z,98250.88
2024-02-05T02:58:58.033Z,98242.08
2024-02-05T03:04:01.225Z,98235.61
2024-02-05T03:09:04.954Z,98220.03
2024-02-05T03:14:08.062Z,98225.29
2024-02-05T03:19:11.162Z,98219.81
2024-02-05T03:24:14.187Z,98213.91
2024-02-05T03:29:17.598Z,98200.05
2024-02-05T03:34:20.937Z,98190.87
2024-02-05T03:39:24.326Z,98175.77
2024-02-05T03:44:27.485Z,98167.66
2024-02-05T03:49:31.298Z,98152.55
2024-02-05T03:54:35.729Z,98143.04
2024-02-05T03:59:38.723Z,98130.20
2024-02-05T04:04:42.700Z,98112.19
2024-02-05T04:09:45.848Z,98102.70
2024-02-05T04:14:48.985Z,98092.21
2024-02-05T04:19:52.630Z,98082.73
2024-02-05T04:24:55.784Z,98070.61
2024-02-05T04:29:58.779Z,98064.25
2024-02-05T04:35:02.470Z,98056.58
2024-02-05T04:40:06.772Z,98036.84
2024-02-05T04:45:10.400Z,98029.84
2024-02-05T04:50:15.198Z,98021.70
2024-02-05T04:55:18.728Z,98009.75
2024-02-05T05:00:23.121Z,98001.13
2024-02-05T05:05:26.831Z,97995.20
2024-02-05T05:10:30.072Z,97987.17
2024-02-05T05:15:37.492Z,97980.04
2024-02-05T05:20:42.891Z,97977.75
2024-02-05T05:25:45.954Z,97967.98
2024-02-05T05:30:49.047Z,97958.45
2024-02-05T05:35:52.306Z,97967.14
2024-02-05T05:40:55.971Z,97959.77
2024-02-05T05:45:59.122Z,97957.80
2024-02-05T05:51:02.788Z,97956.81
2024-02-05T05:56:06.508Z,97951.03
2024-02-05T06:01:10.022Z,97962.67
2024-02-05T06:06:13.484Z,97969.45
2024-02-05T06:11:16.512Z,97972.92
2024-02-05T06:16:19.774Z,97972.67
2024-02-05T06:21:22.924Z,97968.38
2024-02-05T06:26:26.120Z,97971.89
2024-02-05T06:31:29.421Z,97964.91
2024-02-05T06:36:32.625Z,97967.98
2024-02-05T06:41:35.651Z,97974.80
2024-02-05T06:46:38.831Z,97968.80
2024-02-05T06:51:42.639Z,97972.70
2024-02-05T06:56:48.330Z,97969.98
2024-02-05T07:01:52.767Z,97971.38
2024-02-05T07:06:56.044Z,97975.76
2024-02-05T07:11:59.132Z,97965.04
2024-02-05T07:17:02.248Z,97987.97
2024-02-05T07:22:05.829Z,97996.45
2024-02-05T07:27:09.089Z,98002.15
2024-02-05T07:32:12.357Z,98020.61
2024-02-05T07:37:15.596Z,98032.02
2024-02-05T07:42:19.212Z,98043.56
2024-02-05T07:47:22.331Z,98076.70
2024-02-05T07:52:27.491Z,98092.48
2024-02-05T07:57:30.571Z,98103.63
2024-02-05T08:02:34.446Z,98120.48
2024-02-05T08:07:37.946Z,98129.69
2024-02-05T08:12:41.598Z,98159.52
2024-02-05T08:17:44.776Z,98170.08
2024-02-05T08:22:47.919Z,98161.63
2024-02-05T08:27:51.257Z,98167.66
2024-02-05T08:32:54.891Z,98175.67
2024-02-05T08:37:58.237Z,98187.19
2024-02-05T08:43:02.007Z,98175.95
2024-02-05T08:48:07.659Z,98191.54
2024-02-05T08:53:11.129Z,98195.36
2024-02-05T08:58:14.638Z,98198.14
2024-02-05T09:03:18.400Z,98191.36
2024-02-05T09:08:21.941Z,98192.49
2024-02-05T09:13:25.778Z,98196.15
2024-02-05T09:18:29.223Z,98200.17
2024-02-05T09:23:34.570Z,98202.27
2024-02-05T09:28:37.800Z,98200.02
2024-02-05T09:33:42.095Z,98207.63
2024-02-05T09:38:45.274Z,98213.11
2024-02-05T09:43:51.695Z,98209.95
2024-02-05T09:48:57.623Z,98208.06
2024-02-05T09:54:10.985Z,98203.41
2024-02-05T09:59:21.150Z,98196.48
2024-02-05T10:04:26.434Z,98194.98
2024-02-05T10:09:31.018Z,98192.14
2024-02-05T10:14:34.708Z,98180.63
2024-02-05T10:19:38.430Z,98179.34
2024-02-05T10:24:42.478Z,98177.46
2024-02-05T10:29:46.066Z,98175.08
2024-02-05T10:34:53.090Z,98168.34
2024-02-05T10:40:11.890Z,98157.68
2024-02-05T10:45:15.458Z,98157.05
2024-02-05T10:50:18.715Z,98153.48
2024-02-05T10:55:22.476Z,98142.70
2024-02-05T11:00:25.733Z,98138.71
2024-02-05T11:05:29.296Z,98146.38
2024-02-05T11:10:34.460Z,98144.05
2024-02-05T11:15:40.107Z,98138.34
2024-02-05T11:20:48.913Z,98132.50
2024-02-05T11:25:53.424Z,98133.73
2024-02-05T11:31:10.411Z,98122.61
2024-02-05T11:36:14.489Z,98129.16
2024-02-05T11:41:23.301Z,98131.84
2024-02-05T11:46:26.601Z,98143.89
2024-02-05T11:51:32.765Z,98146.02
2024-02-05T11:56:40.203Z,98146.09
2024-02-05T12:01:44.930Z,98150.05
2024-02-05T12:06:48.972Z,98150.11
2024-02-05T12:11:52.519Z,98147.80
2024-02-05T12:16:55.624Z,98152.14
2024-02-05T12:21:59.167Z,98145.61
2024-02-05T12:27:02.749Z,98143.56
2024-02-05T12:32:09.500Z,98151.67
2024-02-05T12:37:13.070Z,98149.73
2024-02-05T12:42:19.161Z,98149.70
2024-02-05T12:47:23.556Z,98148.42
2024-02-05T12:52:27.287Z,98156.48
2024-02-05T12:57:31.426Z,98161.83
2024-02-05T13:02:35.621Z,98160.23
2024-02-05T13:07:39.685Z,98160.52
2024-02-05T13:12:42.988Z,98159.54
2024-02-05T13:17:47.255Z,98159.71
2024-02-05T13:22:50.444Z,98159.47
2024-02-05T13:27:53.671Z,98165.73
2024-02-05T13:32:57.069Z,98175.23
2024-02-05T13:38:01.931Z,98175.23
2024-02-05T13:43:07.333Z,98181.31
2024-02-05T13:48:11.142Z,98182.85
2024-02-05T13:53:14.344Z,98198.41
2024-02-05T13:58:17.684Z,98194.21
2024-02-05T14:03:20.838Z,98205.65
2024-02-05T14:08:26.302Z,98204.52
2024-02-05T14:13:29.513Z,98209.83
2024-02-05T14:18:32.762Z,98221.73
2024-02-05T14:23:36.937Z,98223.00
2024-02-05T14:28:40.180Z,98224.76
2024-02-05T14:33:46.034Z,98229.80
2024-02-05T14:38:50.371Z,98235.85
2024-02-05T14:43:53.493Z,98241.91
2024-02-05T14:48:56.780Z,98248.59
2024-02-05T14:54:00.622Z,98252.54
2024-02-05T14:59:05.518Z,98249.24
2024-02-05T15:04:09.243Z,98251.55
2024-02-05T15:09:12.683Z,98249.56
2024-02-05T15:14:18.627Z,98250.55
2024-02-05T15:19:22.118Z,98261.13
2024-02-05T15:24:25.568Z,98257.92
2024-02-05T15:29:29.305Z,98262.38
2024-02-05T15:34:35.013Z,98267.23
2024-02-05T15:39:38.126Z,98283.25
2024-02-05T15:44:41.421Z,98287.74
2024-02-05T15:49:44.762Z,98291.08
2024-02-05T15:54:48.117Z,98303.66
2024-02-05T15:59:51.400Z,98313.45
2024-02-05T16:04:54.452Z,98310.65
2024-02-05T16:09:58.192Z,98313.75
2024-02-05T16:15:01.278Z,98312.17
2024-02-05T16:20:06.267Z,98317.39
2024-02-05T16:25:09.735Z,98329.17
2024-02-05T16:30:13.849Z,98331.92
2024-02-05T16:35:17.291Z,98338.59
2024-02-05T16:40:24.891Z,98343.52
2024-02-05T16:45:28.052Z,98359.95
2024-02-05T16:50:31.437Z,98372.58
2024-02-05T16:55:34.966Z,98370.94
2024-02-05T17:00:38.271Z,98367.04
2024-02-05T17:05:42.060Z,98367.22
2024-02-05T17:10:45.531Z,98361.88
2024-02-05T17:15:50.254Z,98366.27
2024-02-05T17:20:53.792Z,98361.98
2024-02-05T17:25:57.076Z,98364.91
2024-02-05T17:31:00.278Z,98363.56
2024-02-05T17:36:05.942Z,98357.39
2024-02-05T17:41:18.051Z,98359.56
2024-02-05T17:46:21.325Z,98351.09
2024-02-05T17:51:24.407Z,98345.29
2024-02-05T17:56:27.512Z,98347.27
2024-02-05T18:01:30.930Z,98349.79
2024-02-05T18:06:34.281Z,98355.44
2024-02-05T18:11:37.629Z,98352.89
2024-02-05T18:16:42.495Z,98351.78
2024-02-05T18:21:45.879Z,98343.55
2024-02-05T18:26:49.174Z,98336.98
2024-02-05T18:31:53.090Z,98337.26
2024-02-05T18:36:56.276Z,98352.94
2024-02-05T18:42:00.341Z,98351.39
2024-02-05T18:47:04.441Z,98348.85
2024-02-05T18:52:10.099Z,98350.70
2024-02-05T18:57:16.816Z,98349.12
2024-02-05T19:02:24.888Z,98336.05
2024-02-05T19:07:28.324Z,98340.69
2024-02-05T19:12:31.783Z,98345.32
2024-02-05T19:17:35.297Z,98349.14
2024-02-05T19:22:38.700Z,98350.25
2024-02-05T19:27:41.964Z,98347.58
2024-02-05T19:32:45.278Z,98331.13
2024-02-05T19:37:49.509Z,98327.27
2024-02-05T19:42:53.103Z,98330.23
2024-02-05T19:47:56.401Z,98338.80
2024-02-05T19:53:00.095Z,98339.02
2024-02-05T19:58:03.639Z,98330.84
2024-02-05T20:03:08.889Z,98335.80
2024-02-05T20:08:12.413Z,98327.30
2024-02-05T20:13:17.123Z,98322.02
2024-02-05T20:18:20.550Z,98322.72
2024-02-05T20:23:23.848Z,98319.52
2024-02-05T20:28:26.985Z,98321.42
2024-02-05T20:33:30.334Z,98317.80
2024-02-05T20:38:33.408Z,98316.46
2024-02-05T20:43:36.535Z,98319.70
2024-02-05T20:48:40.255Z,98313.89
2024-02-05T20:53:45.012Z,98326.14
2024-02-05T20:58:48.105Z,98328.67
2024-02-05T21:03:51.279Z,98321.27
2024-02-05T21:08:54.909Z,98319.74
2024-02-05T21:13:58.205Z,98326.23
2024-02-05T21:19:01.356Z,98322.61
2024-02-05T21:24:05.320Z,98316.20
2024-02-05T21:29:14.314Z,98312.23
2024-02-05T21:34:17.568Z,98309.19
2024-02-05T21:39:20.823Z,98303.59
2024-02-05T21:44:26.137Z,98300.16
2024-02-05T21:49:29.860Z,98292.75
2024-02-05T21:54:33.122Z,98298.65
2024-02-05T21:59:36.297Z,98309.23
2024-02-05T22:04:39.795Z,98310.96
2024-02-05T22:09:45.429Z,98313.38
2024-02-05T22:14:50.375Z,98314.59
2024-02-05T22:19:53.571Z,98320.64
2024-02-05T22:24:57.040Z,98323.60
2024-02-05T22:30:01.371Z,98327.20
2024-02-05T22:35:05.171Z,98330.50
2024-02-05T22:40:11.210Z,98330.02
2024-02-05T22:45:15.891Z,98343.13
2024-02-05T22:50:19.495Z,98341.67
2024-02-05T22:55:23.012Z,98337.43
2024-02-05T23:00:26.162Z,98336.33
2024-02-05T23:05:29.526Z,98330.70
2024-02-05T23:10:33.057Z,98334.94
2024-02-05T23:15:36.527Z,98333.05
2024-02-05T23:20:39.787Z,98333.02
2024-02-05T23:25:43.192Z,98326.89
2024-02-05T23:30:46.298Z,98323.27
2024-02-05T23:35:50.123Z,98327.34
2024-02-05T23:40:53.376Z,98324.47
2024-02-05T23:45:56.525Z,98330.69
2024-02-05T23:50:59.775Z,98329.33
2024-02-05T23:56:03.096Z,98324.81
